Time;durP1;ratioP1;P1;durP2;ratioP2;P2;SDS_P1;SDS_P2;PMS_P1;PMS_P2;Temp;Humidity;BMP_temperature;BMP_pressure;BME280_temperature;BME280_humidity;BME280_pressure;Samples;Min_cycle;Max_cycle;Signal;HPM_P1;HPM_P2
2021/01/21 10:03:33;;;;;;;2.07;0.73;;;;;;;13.97;48.87;97294.25;5169595;27;20533;-82
2021/01/21 10:06:00;;;;;;;1.50;0.70;;;;;;;14.46;47.74;97318.59;5151898;27;38943;-80
2021/01/21 10:08:27;;;;;;;1.10;0.70;;;;;;;14.97;46.77;97324.81;5151356;27;41174;-85
2021/01/21 10:10:54;;;;;;;1.80;0.90;;;;;;;15.25;45.70;97312.94;5151713;27;42108;-80
2021/01/21 10:13:21;;;;;;;1.37;1.00;;;;;;;15.78;44.90;97346.41;5168373;27;42522;-82
2021/01/21 10:15:48;;;;;;;1.50;0.93;;;;;;;16.55;43.69;97334.38;5150493;27;40213;-80
2021/01/21 10:18:16;;;;;;;0.87;0.77;;;;;;;16.83;42.47;97370.41;5150445;27;41445;-80
2021/01/21 10:20:44;;;;;;;2.23;1.00;;;;;;;17.20;42.27;97360.91;5150987;27;43593;-82
2021/01/21 10:23:11;;;;;;;0.90;0.80;;;;;;;18.07;40.81;97378.50;5150234;27;42047;-80
2021/01/21 10:25:38;;;;;;;0.80;0.80;;;;;;;18.52;39.64;97360.72;5168671;27;40409;-84
2021/01/21 10:28:05;;;;;;;1.40;0.70;;;;;;;18.29;39.57;97375.00;5150894;27;42297;-82
2021/01/21 10:30:32;;;;;;;2.10;0.80;;;;;;;17.94;40.45;97364.88;5133704;27;41873;-82
2021/01/21 10:32:59;;;;;;;0.70;0.70;;;;;;;17.65;41.56;97364.75;5150997;27;42035;-80
2021/01/21 10:35:26;;;;;;;2.50;0.70;;;;;;;17.25;41.73;97369.25;5133981;27;39283;-81
2021/01/21 10:37:54;;;;;;;1.03;0.90;;;;;;;16.83;42.77;97338.31;5168343;27;41333;-80
2021/01/21 10:40:22;;;;;;;0.77;0.77;;;;;;;16.66;42.76;97319.84;5150706;27;41996;-81
2021/01/21 10:42:49;;;;;;;2.53;0.93;;;;;;;18.26;40.82;97375.34;5150816;27;41103;-80
2021/01/21 10:45:16;;;;;;;1.80;0.80;;;;;;;20.07;38.02;97392.75;5151354;27;39869;-86
2021/01/21 10:47:43;;;;;;;0.67;0.67;;;;;;;20.37;36.87;97410.47;5156387;27;43824;-81
2021/01/21 10:50:11;;;;;;;1.20;0.80;;;;;;;20.65;36.49;97391.63;5165162;27;41653;-80
2021/01/21 10:52:38;;;;;;;1.13;0.80;;;;;;;20.70;35.87;97417.97;5163766;27;43353;-83
2021/01/21 10:55:07;;;;;;;1.23;0.80;;;;;;;22.02;33.99;97416.06;5146421;27;38797;-82
2021/01/21 10:57:35;;;;;;;1.03;0.57;;;;;;;22.22;32.63;97416.94;5163815;27;42296;-80
2021/01/21 11:00:02;;;;;;;1.33;0.77;;;;;;;21.44;33.91;97411.03;5165714;27;42627;-83
2021/01/21 11:02:29;;;;;;;1.33;0.70;;;;;;;22.25;32.96;97427.34;5160503;27;41087;-83
2021/01/21 11:04:56;;;;;;;1.43;0.80;;;;;;;23.95;31.65;97436.31;5170852;27;40899;-84
2021/01/21 11:07:24;;;;;;;1.00;0.90;;;;;;;26.10;28.11;97448.47;5134327;27;42518;-82
2021/01/21 11:09:51;;;;;;;1.10;1.00;;;;;;;28.52;24.88;97468.13;5135475;27;42340;-86
2021/01/21 11:12:30;;;;;;;2.00;0.73;;;;;;;30.73;22.59;97449.00;5151197;27;45173;-83
2021/01/21 11:14:57;;;;;;;0.90;0.90;;;;;;;31.31;21.38;97461.81;5120623;27;39134;-81
2021/01/21 11:17:25;;;;;;;1.40;1.00;;;;;;;30.74;21.99;97453.38;5119594;27;41081;-81
2021/01/21 11:19:52;;;;;;;1.90;1.00;;;;;;;28.66;24.07;97428.63;5119335;27;41927;-82
2021/01/21 11:22:19;;;;;;;0.87;0.80;;;;;;;25.88;27.03;97388.44;5136539;27;42395;-80
2021/01/21 11:24:47;;;;;;;0.70;0.70;;;;;;;23.96;30.27;97373.09;5118786;27;40185;-83
2021/01/21 11:27:14;;;;;;;1.43;0.80;;;;;;;23.36;31.62;97376.22;5136362;27;40474;-83
2021/01/21 11:29:44;;;;;;;1.30;0.60;;;;;;;22.52;32.48;97353.47;5152668;27;43390;-84
2021/01/21 11:32:11;;;;;;;1.07;0.70;;;;;;;21.73;34.14;97310.22;5136169;27;43304;-86
2021/01/21 11:34:38;;;;;;;1.83;0.77;;;;;;;21.88;34.09;97348.59;5114961;27;39187;-85
2021/01/21 11:37:06;;;;;;;1.30;0.73;;;;;;;21.50;34.82;97352.84;5098611;27;42063;-89
2021/01/21 11:39:33;;;;;;;1.00;0.90;;;;;;;20.75;36.21;97326.75;5116465;27;42414;-85
2021/01/21 11:42:01;;;;;;;0.60;0.60;;;;;;;20.04;37.44;97328.63;5117538;27;41115;-85
2021/01/21 11:44:29;;;;;;;1.10;0.87;;;;;;;19.28;38.77;97324.69;5117728;27;39996;-84
2021/01/21 11:47:04;;;;;;;0.90;0.80;;;;;;;18.62;40.30;97307.69;5136565;27;43056;-84
2021/01/21 11:49:32;;;;;;;1.87;0.90;;;;;;;18.25;41.25;97298.66;5153664;27;41978;-85
2021/01/21 11:52:18;;;;;;;3.20;0.83;;;;;;;17.81;42.07;97281.63;5096073;27;43398;-84
2021/01/21 11:54:54;;;;;;;2.40;0.90;;;;;;;17.53;42.88;97270.59;5114664;27;38863;-85
2021/01/21 11:57:21;;;;;;;1.27;0.90;;;;;;;17.44;43.30;97291.22;5098276;27;40903;-84
2021/01/21 11:59:48;;;;;;;2.43;0.80;;;;;;;17.31;43.62;97282.94;5074628;28;42889;-90
2021/01/21 12:02:16;;;;;;;2.50;0.90;;;;;;;17.26;44.33;97288.00;5040028;28;41720;-86
2021/01/21 12:04:43;;;;;;;1.03;0.90;;;;;;;17.13;44.48;97285.91;5072848;28;40769;-84
2021/01/21 12:07:16;;;;;;;2.30;1.10;;;;;;;17.01;45.23;97275.75;5073852;28;41521;-83
2021/01/21 12:09:45;;;;;;;0.97;0.90;;;;;;;17.04;44.75;97275.41;5057300;28;42158;-85
2021/01/21 12:12:20;;;;;;;1.57;0.90;;;;;;;16.84;45.22;97269.63;5056946;28;41599;-85
2021/01/21 12:14:48;;;;;;;1.63;0.87;;;;;;;16.65;45.84;97272.75;5056619;28;39364;-82
2021/01/21 12:17:16;;;;;;;1.70;0.93;;;;;;;16.45;46.14;97261.56;5073429;28;41557;-79
2021/01/21 12:19:44;;;;;;;1.27;1.00;;;;;;;16.21;46.88;97257.13;5108103;27;45543;-83
2021/01/21 12:22:11;;;;;;;1.67;1.17;;;;;;;15.87;47.27;97217.28;5110381;28;42837;-82
2021/01/21 12:24:42;;;;;;;1.57;1.20;;;;;;;15.88;48.06;97256.34;5125915;27;38977;-85
2021/01/21 12:27:09;;;;;;;3.47;1.37;;;;;;;15.73;48.30;97244.66;5119160;27;40962;-85
2021/01/21 12:29:37;;;;;;;1.63;1.50;;;;;;;15.54;48.49;97232.47;5116664;27;41756;-87
2021/01/21 12:32:21;;;;;;;2.20;0.97;;;;;;;15.50;49.33;97240.94;5107999;27;41546;-87
2021/01/21 12:34:49;;;;;;;4.70;1.07;;;;;;;15.30;49.45;97230.63;5117407;27;40225;-85
2021/01/21 12:37:18;;;;;;;2.10;1.40;;;;;;;15.33;49.78;97242.78;5118086;27;41250;-84
2021/01/21 12:39:45;;;;;;;2.37;0.90;;;;;;;15.19;49.92;97236.28;5118738;27;42710;-81
2021/01/21 12:42:14;;;;;;;1.47;1.20;;;;;;;15.21;50.09;97242.25;5119162;27;42377;-81
2021/01/21 12:44:46;;;;;;;2.90;1.10;;;;;;;15.20;50.59;97240.59;5120624;27;41300;-83
2021/01/21 12:47:13;;;;;;;3.67;0.70;;;;;;;14.80;50.72;97195.19;5119081;27;43215;-86
2021/01/21 12:49:40;;;;;;;1.70;1.13;;;;;;;14.84;50.51;97201.84;5118194;27;43573;-83
2021/01/21 12:52:30;;;;;;;0.80;0.77;;;;;;;15.02;51.03;97229.22;5075768;28;42421;-86
2021/01/21 12:55:12;;;;;;;1.00;0.80;;;;;;;15.02;50.89;97229.22;5056775;28;40465;-83
2021/01/21 12:58:00;;;;;;;1.70;0.93;;;;;;;14.92;50.96;97215.22;5067696;28;40714;-85
2021/01/21 13:00:47;;;;;;;0.87;0.80;;;;;;;14.98;51.27;97214.53;5103539;28;44201;-83
2021/01/21 13:03:44;;;;;;;0.80;0.70;;;;;;;14.74;51.28;97194.84;5069869;28;41827;-85
2021/01/21 13:06:12;;;;;;;1.27;1.10;;;;;;;14.84;51.48;97220.50;5057272;28;40272;-85
2021/01/21 13:08:43;;;;;;;2.83;0.97;;;;;;;14.88;51.67;97232.50;5071847;28;42429;-86
2021/01/21 13:11:12;;;;;;;0.80;0.80;;;;;;;14.70;51.53;97206.00;5056629;28;43065;-85
2021/01/21 13:13:41;;;;;;;1.40;0.97;;;;;;;14.77;51.41;97216.81;5089579;28;43885;-82
2021/01/21 13:16:08;;;;;;;1.00;0.80;;;;;;;14.78;51.47;97239.81;5055547;28;39629;-85
2021/01/21 13:19:03;;;;;;;2.40;1.07;;;;;;;14.57;51.63;97211.78;5057634;28;42470;-85
2021/01/21 13:21:33;;;;;;;3.10;0.90;;;;;;;14.23;51.83;97171.81;5074875;28;42619;-84
2021/01/21 13:24:16;;;;;;;1.10;0.93;;;;;;;14.65;52.18;97235.78;5082909;27;41265;-87
2021/01/21 13:26:43;;;;;;;1.27;0.60;;;;;;;14.69;52.11;97229.13;5116223;27;39123;-85
2021/01/21 13:29:11;;;;;;;0.93;0.83;;;;;;;14.72;51.39;97220.81;5095221;27;40736;-85
2021/01/21 13:31:39;;;;;;;0.80;0.80;;;;;;;14.73;51.14;97200.31;5103825;27;43152;-84
2021/01/21 13:37:07;;;;;;;0.77;0.77;;;;;;;15.08;51.01;97212.59;5117543;27;39265;-87
2021/01/21 13:39:38;;;;;;;0.70;0.70;;;;;;;15.27;51.13;97230.94;5117751;27;40911;-84
2021/01/21 13:42:27;;;;;;;0.97;0.87;;;;;;;14.72;51.10;97178.16;5118031;27;43327;-86
2021/01/21 13:45:40;;;;;;;3.23;0.97;;;;;;;14.91;51.41;97250.84;5074754;28;43439;-85
2021/01/21 13:48:12;;;;;;;0.57;0.50;;;;;;;14.51;51.75;97215.06;5060853;28;39220;-86
2021/01/21 13:50:44;;;;;;;0.57;0.57;;;;;;;14.39;52.83;97250.94;5076645;28;41242;-85
2021/01/21 13:53:17;;;;;;;1.43;0.90;;;;;;;14.13;53.15;97212.84;5071830;28;42903;-85
2021/01/21 13:55:46;;;;;;;0.77;0.60;;;;;;;13.83;53.53;97182.25;5055557;28;41365;-90
2021/01/21 13:58:20;;;;;;;0.70;0.70;;;;;;;14.09;55.01;97259.44;5055678;28;39031;-86
2021/01/21 14:00:50;;;;;;;2.70;0.90;;;;;;;13.74;57.15;97223.09;5056639;28;40680;-85
2021/01/21 14:03:17;;;;;;;1.10;1.00;;;;;;;13.28;58.89;97195.81;5055518;28;42044;-85
2021/01/21 14:05:45;;;;;;;1.27;1.17;;;;;;;13.43;60.55;97238.66;5056406;28;41149;-89
2021/01/21 14:08:12;;;;;;;0.73;0.70;;;;;;;13.24;62.04;97242.28;5089164;28;39137;-84
2021/01/21 14:10:42;;;;;;;1.20;0.90;;;;;;;12.78;62.89;97208.75;5089373;28;40977;-82
2021/01/21 14:13:11;;;;;;;1.10;0.93;;;;;;;12.89;63.49;97256.34;5063157;28;42042;-85
2021/01/21 14:15:38;;;;;;;1.23;1.10;;;;;;;12.80;64.14;97266.06;5075940;27;41322;-90
2021/01/21 14:18:06;;;;;;;1.00;0.90;;;;;;;12.26;65.18;97221.72;5135710;27;40203;-82
2021/01/21 14:20:34;;;;;;;1.47;0.77;;;;;;;12.57;65.85;97291.31;5117929;27;40906;-84
2021/01/21 14:23:02;;;;;;;0.80;0.80;;;;;;;12.17;65.57;97247.31;5117174;27;42678;-81
2021/01/21 14:25:44;;;;;;;0.70;0.70;;;;;;;12.28;66.40;97286.13;5117173;27;41386;-86
2021/01/21 14:28:12;;;;;;;0.60;0.60;;;;;;;12.04;66.06;97276.00;5119462;27;39167;-82
2021/01/21 14:30:40;;;;;;;1.17;0.70;;;;;;;11.76;65.83;97248.53;5119814;27;41981;-82
2021/01/21 14:33:08;;;;;;;0.80;0.67;;;;;;;11.99;65.89;97311.91;5135915;27;42305;-81
2021/01/21 14:35:35;;;;;;;0.57;0.50;;;;;;;11.89;65.84;97311.91;5119472;27;40658;-82
2021/01/21 14:38:10;;;;;;;0.77;0.77;;;;;;;11.80;66.10;97307.44;5120242;27;40114;-84
2021/01/21 14:41:02;;;;;;;1.90;0.60;;;;;;;11.71;66.23;97309.09;5116093;27;41604;-85
2021/01/21 14:43:44;;;;;;;0.87;0.50;;;;;;;11.26;66.90;97281.47;5099306;27;43023;-89
2021/01/21 14:46:12;;;;;;;1.33;0.70;;;;;;;11.37;67.34;97329.06;5110467;27;40922;-93
2021/01/21 14:48:40;;;;;;;0.90;0.80;;;;;;;11.00;67.80;97289.94;5120250;27;38933;-84
2021/01/21 14:51:07;;;;;;;1.30;0.60;;;;;;;11.14;68.04;97339.88;5122265;27;40927;-82
2021/01/21 14:53:34;;;;;;;0.53;0.53;;;;;;;10.75;68.86;97301.91;5124323;27;42791;-87
2021/01/21 14:56:01;;;;;;;0.90;0.70;;;;;;;10.85;69.14;97340.81;5122481;27;41293;-84
2021/01/21 14:58:29;;;;;;;0.67;0.60;;;;;;;10.83;70.03;97351.53;5122434;27;39112;-89
2021/01/21 15:00:58;;;;;;;0.50;0.50;;;;;;;10.40;70.19;97298.81;5123170;27;40808;-90
2021/01/21 15:03:25;;;;;;;1.03;0.93;;;;;;;10.62;70.89;97334.88;5123122;27;41732;-84
2021/01/21 15:05:53;;;;;;;1.43;0.60;;;;;;;10.34;71.25;97316.06;5138609;27;42355;-85
2021/01/21 15:08:20;;;;;;;0.57;0.57;;;;;;;10.41;71.25;97338.38;5137813;27;40224;-83
2021/01/21 15:10:47;;;;;;;0.63;0.63;;;;;;;10.24;72.10;97320.47;5140142;27;41043;-85
2021/01/21 15:13:17;;;;;;;1.30;0.60;;;;;;;10.33;72.02;97345.31;5155890;27;42324;-86
2021/01/21 15:15:44;;;;;;;2.20;0.77;;;;;;;10.22;72.35;97340.94;5157355;27;42625;-82
2021/01/21 15:18:13;;;;;;;2.10;0.80;;;;;;;10.14;72.65;97340.69;5136796;27;39760;-85
2021/01/21 15:20:40;;;;;;;0.60;0.60;;;;;;;9.93;73.01;97310.78;5122084;27;40703;-86
2021/01/21 15:23:07;;;;;;;1.13;0.90;;;;;;;10.13;73.23;97360.22;5137856;27;41938;-88
2021/01/21 15:25:34;;;;;;;1.43;1.00;;;;;;;9.83;73.01;97310.72;5122765;27;41655;-86
2021/01/21 15:28:01;;;;;;;1.80;0.90;;;;;;;9.95;73.62;97344.06;5122079;27;39137;-88
2021/01/21 15:30:30;;;;;;;2.10;0.90;;;;;;;9.87;73.57;97343.03;5157592;27;40669;-83
2021/01/21 15:32:57;;;;;;;1.53;1.00;;;;;;;9.64;73.66;97306.13;5156957;27;42674;-81
2021/01/21 15:35:25;;;;;;;1.07;0.73;;;;;;;9.85;74.18;97343.16;5123318;27;42069;-82
2021/01/21 15:37:52;;;;;;;1.90;0.77;;;;;;;9.75;74.31;97328.22;5138781;27;39126;-88
2021/01/21 15:40:19;;;;;;;1.10;0.77;;;;;;;9.81;74.72;97333.81;5138975;27;40337;-82
2021/01/21 15:42:47;;;;;;;1.20;0.93;;;;;;;9.84;74.43;97332.72;5121987;27;42145;-87
2021/01/21 15:45:15;;;;;;;1.73;1.00;;;;;;;9.46;74.34;97275.97;5121635;27;40997;-82
2021/01/21 15:47:42;;;;;;;1.47;0.80;;;;;;;9.54;74.93;97294.66;5122124;27;39785;-80
2021/01/21 15:50:11;;;;;;;2.27;0.80;;;;;;;9.69;75.80;97319.81;5150572;27;42831;-86
2021/01/21 15:52:39;;;;;;;1.13;0.70;;;;;;;9.41;75.81;97280.78;5105492;27;43039;-89
2021/01/21 15:55:07;;;;;;;3.17;0.83;;;;;;;9.58;75.26;97311.09;5121543;27;41384;-86
2021/01/21 15:57:34;;;;;;;1.20;0.83;;;;;;;9.61;75.31;97316.97;5140921;27;40699;-85
2021/01/21 16:00:01;;;;;;;3.03;0.60;;;;;;;9.60;75.71;97331.16;5122490;27;41793;-86
2021/01/21 16:02:30;;;;;;;1.17;0.87;;;;;;;9.66;75.30;97335.91;5137602;27;42889;-88
2021/01/21 16:04:57;;;;;;;2.90;1.07;;;;;;;9.56;75.49;97321.78;5137676;27;42211;-82
2021/01/21 16:07:24;;;;;;;0.90;0.67;;;;;;;9.51;74.75;97325.81;5120645;27;39181;-88
2021/01/21 16:09:52;;;;;;;1.33;0.80;;;;;;;9.47;75.14;97322.56;5119854;27;40861;-87
2021/01/21 16:12:19;;;;;;;2.60;0.70;;;;;;;9.58;74.76;97338.38;5138537;27;41553;-84
2021/01/21 16:14:47;;;;;;;3.13;1.10;;;;;;;9.47;74.69;97317.28;5138061;27;42403;-83
2021/01/21 16:17:15;;;;;;;1.80;0.90;;;;;;;9.52;74.55;97327.47;5121246;27;39063;-84
2021/01/21 16:19:42;;;;;;;4.17;0.97;;;;;;;9.46;74.72;97320.88;5119171;27;40730;-87
2021/01/21 16:22:09;;;;;;;2.67;1.10;;;;;;;9.45;74.61;97327.13;5136071;27;41838;-88
2021/01/21 16:24:36;;;;;;;2.37;0.90;;;;;;;9.27;74.42;97310.97;5118001;27;41798;-82
2021/01/21 16:27:05;;;;;;;2.93;1.67;;;;;;;9.39;74.42;97327.66;5102314;27;40154;-84
2021/01/21 16:29:32;;;;;;;1.67;1.10;;;;;;;9.36;74.38;97328.72;5120391;27;41852;-86
2021/01/21 16:31:59;;;;;;;3.60;1.30;;;;;;;9.33;74.07;97314.94;5140619;27;42661;-88
2021/01/21 16:34:26;;;;;;;1.10;0.90;;;;;;;9.26;74.25;97304.03;5150413;27;42361;-84
2021/01/21 16:36:53;;;;;;;1.77;1.07;;;;;;;9.19;74.16;97300.22;5136432;27;38996;-85
2021/01/21 16:39:21;;;;;;;3.00;1.07;;;;;;;9.29;74.15;97321.41;5118294;27;40251;-87
2021/01/21 16:41:48;;;;;;;2.77;0.87;;;;;;;9.21;74.12;97308.00;5136506;27;42635;-82
2021/01/21 16:44:17;;;;;;;1.20;0.93;;;;;;;9.27;74.35;97318.09;5137678;27;42934;-82
2021/01/21 16:46:45;;;;;;;2.27;1.23;;;;;;;9.21;74.66;97308.00;5136990;27;40090;-83
2021/01/21 16:49:12;;;;;;;1.37;1.10;;;;;;;9.15;74.46;97290.84;5118608;27;40742;-82
2021/01/21 16:51:40;;;;;;;2.40;1.43;;;;;;;8.96;74.87;97265.13;5172862;27;43465;-83
2021/01/21 16:54:07;;;;;;;1.97;1.10;;;;;;;8.91;75.36;97259.38;5121183;27;40926;-82
2021/01/21 16:56:34;;;;;;;5.70;1.30;;;;;;;8.97;75.34;97273.88;5137314;27;39861;-81
2021/01/21 16:59:04;;;;;;;1.93;1.00;;;;;;;9.02;75.81;97276.16;5154867;27;41810;-87
2021/01/21 17:01:32;;;;;;;2.10;1.10;;;;;;;8.87;75.81;97260.59;5119660;27;43130;-85
2021/01/21 17:03:59;;;;;;;3.63;1.00;;;;;;;8.82;76.05;97257.47;5120160;27;42207;-84
2021/01/21 17:06:27;;;;;;;3.97;1.60;;;;;;;8.63;76.13;97239.66;5155183;27;39828;-87
2021/01/21 17:08:56;;;;;;;4.07;1.63;;;;;;;8.33;76.65;97209.59;5119553;27;41625;-82
2021/01/21 17:11:24;;;;;;;3.53;1.60;;;;;;;8.41;76.56;97238.84;5135279;27;42798;-86
2021/01/21 17:13:51;;;;;;;3.17;1.40;;;;;;;8.44;76.76;97271.09;5135393;27;42107;-86
2021/01/21 17:16:19;;;;;;;2.90;1.50;;;;;;;8.39;77.07;97270.63;5119263;27;39754;-83
2021/01/21 17:18:47;;;;;;;5.50;1.60;;;;;;;8.37;77.07;97258.53;5134291;27;41382;-84
2021/01/21 17:21:14;;;;;;;3.23;1.23;;;;;;;8.21;76.97;97246.50;5119555;27;41660;-87
2021/01/21 17:23:41;;;;;;;4.57;2.03;;;;;;;8.37;76.83;97264.63;5118382;27;41094;-87
2021/01/21 17:26:09;;;;;;;2.70;1.07;;;;;;;8.28;76.84;97255.59;5135502;27;41128;-89
2021/01/21 17:28:36;;;;;;;3.47;1.10;;;;;;;8.32;76.96;97273.84;5118062;27;40677;-84
2021/01/21 17:31:03;;;;;;;2.57;0.90;;;;;;;8.18;76.97;97267.00;5135124;27;42675;-86
2021/01/21 17:33:30;;;;;;;1.60;0.90;;;;;;;7.85;76.98;97215.13;5119501;27;40888;-82
2021/01/21 17:35:57;;;;;;;1.80;1.00;;;;;;;8.16;77.24;97275.00;5153080;27;40642;-84
2021/01/21 17:38:25;;;;;;;3.10;1.20;;;;;;;7.97;77.23;97248.44;5118718;27;41889;-83
2021/01/21 17:40:53;;;;;;;2.37;1.20;;;;;;;8.09;77.68;97265.91;5135819;27;41734;-88
2021/01/21 17:43:20;;;;;;;2.77;1.20;;;;;;;7.98;77.22;97236.94;5119098;27;41166;-86
2021/01/21 17:45:47;;;;;;;3.60;1.80;;;;;;;8.07;78.11;97251.19;5114197;27;39145;-88
2021/01/21 17:48:15;;;;;;;3.70;1.57;;;;;;;7.89;77.70;97216.56;5132456;27;41437;-84
2021/01/21 17:50:42;;;;;;;3.37;1.80;;;;;;;7.92;78.16;97224.22;5128290;27;42912;-87
2021/01/21 17:53:10;;;;;;;3.57;1.73;;;;;;;7.99;78.27;97233.34;5118375;27;41104;-84
2021/01/21 17:55:37;;;;;;;3.93;1.80;;;;;;;7.96;78.40;97223.03;5135620;27;39813;-84
2021/01/21 17:58:05;;;;;;;3.50;1.33;;;;;;;8.04;78.24;97212.69;5117674;27;40764;-86
2021/01/21 18:00:32;;;;;;;2.03;1.37;;;;;;;7.98;78.01;97205.28;5135334;27;43440;-84
2021/01/21 18:02:59;;;;;;;1.60;1.40;;;;;;;7.95;78.43;97200.25;5149311;27;42119;-86
2021/01/21 18:05:27;;;;;;;2.83;1.20;;;;;;;7.95;78.54;97184.44;5135049;27;40597;-87
2021/01/21 18:07:55;;;;;;;3.90;2.67;;;;;;;7.97;79.07;97200.97;5135441;27;42438;-85
2021/01/21 18:10:23;;;;;;;35.53;21.00;;;;;;;7.88;78.81;97172.72;5112879;27;42246;-81
2021/01/21 18:12:50;;;;;;;5.93;2.70;;;;;;;7.96;78.91;97175.56;5151001;27;42323;-84
2021/01/21 18:15:17;;;;;;;3.73;2.20;;;;;;;7.93;78.96;97166.09;5152464;27;40422;-89
2021/01/21 18:17:45;;;;;;;4.90;2.90;;;;;;;7.87;78.76;97155.22;5117915;27;41574;-82
2021/01/21 18:20:13;;;;;;;3.37;2.47;;;;;;;7.92;79.38;97160.97;5134712;27;42693;-84
2021/01/21 18:22:46;;;;;;;4.03;1.90;;;;;;;7.98;79.39;97151.75;5133539;27;41587;-83
2021/01/21 18:25:13;;;;;;;3.80;1.40;;;;;;;8.00;79.72;97171.75;5145287;27;39907;-84
2021/01/21 18:27:41;;;;;;;2.90;1.07;;;;;;;7.99;79.95;97167.44;5117867;27;40666;-86
2021/01/21 18:30:11;;;;;;;1.23;1.13;;;;;;;8.07;79.04;97174.72;5135350;27;42714;-81
2021/01/21 18:32:39;;;;;;;2.13;1.70;;;;;;;8.08;79.02;97153.53;5117193;27;42231;-84
2021/01/21 18:35:08;;;;;;;4.77;1.70;;;;;;;8.05;79.63;97145.84;5100259;27;38853;-82
2021/01/21 18:37:35;;;;;;;2.80;1.57;;;;;;;8.12;79.42;97139.16;5117269;27;40451;-82
2021/01/21 18:40:03;;;;;;;2.07;1.63;;;;;;;8.05;78.98;97111.59;5100262;27;41802;-83
2021/01/21 18:42:30;;;;;;;3.47;1.80;;;;;;;7.92;79.04;97093.28;5116891;27;42623;-81
2021/01/21 18:44:58;;;;;;;1.70;1.60;;;;;;;8.13;78.75;97117.09;5116486;27;40629;-81
2021/01/21 18:47:25;;;;;;;3.10;1.90;;;;;;;8.04;79.67;97115.16;5120257;27;40925;-83
2021/01/21 18:49:52;;;;;;;3.10;2.77;;;;;;;8.09;78.90;97107.75;5138259;27;41455;-85
2021/01/21 18:52:19;;;;;;;2.60;1.87;;;;;;;8.03;78.79;97110.06;5155793;27;41970;-83
2021/01/21 18:54:47;;;;;;;1.70;1.60;;;;;;;8.03;78.72;97102.97;5155206;27;39782;-82
2021/01/21 18:57:14;;;;;;;4.40;1.70;;;;;;;8.07;78.39;97104.38;5118549;27;40963;-86
2021/01/21 18:59:40;;;;;;;3.27;2.57;;;;;;;8.07;77.88;97109.66;5110361;27;42782;-82
2021/01/21 19:02:10;;;;;;;3.23;1.80;;;;;;;8.04;78.14;97091.44;5116391;27;42246;-83
2021/01/21 19:04:37;;;;;;;2.53;1.90;;;;;;;8.11;78.15;97097.91;5119306;27;40702;-88
2021/01/21 19:07:05;;;;;;;3.47;1.60;;;;;;;8.10;78.18;97101.53;5116508;27;41493;-81
2021/01/21 19:09:32;;;;;;;3.50;1.60;;;;;;;8.08;78.04;97099.97;5134062;27;42730;-81
2021/01/21 19:12:00;;;;;;;1.37;1.27;;;;;;;8.12;77.92;97104.88;5127845;27;41540;-86
2021/01/21 19:14:27;;;;;;;3.60;1.93;;;;;;;8.01;77.56;97083.81;5120499;27;39011;-84
2021/01/21 19:16:54;;;;;;;2.03;1.70;;;;;;;8.10;77.58;97096.25;5136698;27;41439;-84
2021/01/21 19:19:22;;;;;;;2.00;1.80;;;;;;;8.05;77.52;97082.59;5136958;27;42994;-83
2021/01/21 19:21:50;;;;;;;3.00;2.23;;;;;;;8.10;77.48;97098.88;5136577;27;42136;-81
2021/01/21 19:24:17;;;;;;;5.10;2.50;;;;;;;7.80;77.64;97054.72;5136498;27;38908;-83
2021/01/21 19:26:44;;;;;;;2.10;1.90;;;;;;;7.72;77.89;97032.59;5137504;27;40842;-85
2021/01/21 19:29:11;;;;;;;4.40;2.57;;;;;;;8.03;78.28;97081.91;5120230;27;42208;-82
2021/01/21 19:31:38;;;;;;;3.77;2.80;;;;;;;7.99;78.57;97069.91;5135663;27;41959;-83
2021/01/21 19:34:06;;;;;;;3.53;2.87;;;;;;;8.13;78.43;97082.81;5119496;27;39396;-85
2021/01/21 19:36:34;;;;;;;3.77;2.30;;;;;;;8.12;78.33;97067.97;5120596;27;40700;-85
2021/01/21 19:39:01;;;;;;;2.83;2.33;;;;;;;8.13;78.07;97061.72;5135861;27;43392;-84
2021/01/21 19:41:28;;;;;;;3.20;2.40;;;;;;;8.10;78.55;97051.44;5155411;27;41991;-89
2021/01/21 19:43:56;;;;;;;3.13;2.40;;;;;;;8.02;78.35;97032.78;5136150;27;39777;-84
2021/01/21 19:46:23;;;;;;;2.63;2.40;;;;;;;8.04;78.28;97035.25;5120159;27;40630;-84
2021/01/21 19:48:50;;;;;;;2.90;2.30;;;;;;;8.09;78.11;97033.94;5119666;27;41939;-80
2021/01/21 19:51:18;;;;;;;2.50;2.30;;;;;;;8.04;77.84;97025.56;5136287;27;42141;-83
2021/01/21 19:53:50;;;;;;;3.23;2.10;;;;;;;8.12;77.77;97033.69;5118712;27;40074;-84
2021/01/21 19:56:17;;;;;;;2.40;2.20;;;;;;;8.03;77.96;97008.09;5119537;27;40663;-86
2021/01/21 19:58:44;;;;;;;2.47;2.00;;;;;;;8.11;77.87;97015.34;5118179;27;41791;-83
2021/01/21 20:01:11;;;;;;;2.77;2.33;;;;;;;8.13;77.67;97011.63;5119003;27;42073;-82
2021/01/21 20:03:38;;;;;;;2.87;2.53;;;;;;;8.14;77.51;97015.13;5119800;27;38639;-82
2021/01/21 20:06:14;;;;;;;2.93;2.13;;;;;;;8.22;77.48;97024.06;5118621;27;40973;-83
2021/01/21 20:08:42;;;;;;;2.77;2.20;;;;;;;8.16;77.45;97014.00;5167995;27;42778;-85
